sensor_id;sensor_type;location;lat;lon;timestamp;P1;durP1;ratioP1;P2;durP2;ratioP2
46086;SDS011;31824;49.648;8.640;2024-03-22T00:00:01;9.82;;;3.75;;
46086;SDS011;31824;49.648;8.640;2024-03-22T00:05:57;8.18;;;4.20;;
46086;SDS011;31824;49.648;8.640;2024-03-22T00:08:58;9.23;;;3.78;;
46086;SDS011;31824;49.648;8.640;2024-03-22T00:11:59;7.30;;;3.67;;
46086;SDS011;31824;49.648;8.640;2024-03-22T00:15:00;10.43;;;3.70;;
46086;SDS011;31824;49.648;8.640;2024-03-22T00:20:57;10.30;;;3.97;;
46086;SDS011;31824;49.648;8.640;2024-03-22T00:23:58;7.47;;;3.88;;
46086;SDS011;31824;49.648;8.640;2024-03-22T00:26:59;8.43;;;4.07;;
46086;SDS011;31824;49.648;8.640;2024-03-22T00:30:00;10.10;;;4.07;;
46086;SDS011;31824;49.648;8.640;2024-03-22T00:35:57;7.82;;;3.75;;
46086;SDS011;31824;49.648;8.640;2024-03-22T00:38:58;9.48;;;4.13;;
46086;SDS011;31824;49.648;8.640;2024-03-22T00:42:02;12.38;;;4.57;;
46086;SDS011;31824;49.648;8.640;2024-03-22T00:45:03;10.45;;;4.35;;
46086;SDS011;31824;49.648;8.640;2024-03-22T00:50:59;7.82;;;3.92;;
46086;SDS011;31824;49.648;8.640;2024-03-22T00:54:00;8.18;;;3.55;;
46086;SDS011;31824;49.648;8.640;2024-03-22T00:57:01;9.25;;;3.92;;
46086;SDS011;31824;49.648;8.640;2024-03-22T01:00:02;8.05;;;3.70;;
46086;SDS011;31824;49.648;8.640;2024-03-22T01:05:57;8.52;;;4.07;;
46086;SDS011;31824;49.648;8.640;2024-03-22T01:08:58;8.48;;;3.42;;
46086;SDS011;31824;49.648;8.640;2024-03-22T01:11:59;8.38;;;3.65;;
46086;SDS011;31824;49.648;8.640;2024-03-22T01:15:01;8.65;;;3.88;;
46086;SDS011;31824;49.648;8.640;2024-03-22T01:20:57;6.22;;;3.35;;
46086;SDS011;31824;49.648;8.640;2024-03-22T01:23:58;7.13;;;3.60;;
46086;SDS011;31824;49.648;8.640;2024-03-22T01:26:58;8.98;;;3.20;;
46086;SDS011;31824;49.648;8.640;2024-03-22T01:29:59;8.55;;;2.90;;
46086;SDS011;31824;49.648;8.640;2024-03-22T01:35:57;7.05;;;3.10;;
46086;SDS011;31824;49.648;8.640;2024-03-22T01:38:58;9.70;;;3.63;;
46086;SDS011;31824;49.648;8.640;2024-03-22T01:41:59;10.25;;;3.72;;
46086;SDS011;31824;49.648;8.640;2024-03-22T01:45:02;7.18;;;3.15;;
46086;SDS011;31824;49.648;8.640;2024-03-22T01:50:57;9.05;;;3.50;;
46086;SDS011;31824;49.648;8.640;2024-03-22T01:53:58;6.35;;;3.50;;
46086;SDS011;31824;49.648;8.640;2024-03-22T01:57:02;7.97;;;3.08;;
46086;SDS011;31824;49.648;8.640;2024-03-22T02:00:03;8.77;;;3.60;;
46086;SDS011;31824;49.648;8.640;2024-03-22T02:05:57;8.35;;;3.47;;
46086;SDS011;31824;49.648;8.640;2024-03-22T02:08:58;12.98;;;4.25;;
46086;SDS011;31824;49.648;8.640;2024-03-22T02:12:00;9.77;;;3.92;;
46086;SDS011;31824;49.648;8.640;2024-03-22T02:15:02;9.20;;;3.92;;
46086;SDS011;31824;49.648;8.640;2024-03-22T02:20:57;9.10;;;3.58;;
46086;SDS011;31824;49.648;8.640;2024-03-22T02:23:59;8.25;;;3.42;;
46086;SDS011;31824;49.648;8.640;2024-03-22T02:27:00;8.43;;;3.55;;
46086;SDS011;31824;49.648;8.640;2024-03-22T02:30:01;13.48;;;3.72;;
46086;SDS011;31824;49.648;8.640;2024-03-22T02:35:57;8.45;;;3.58;;
46086;SDS011;31824;49.648;8.640;2024-03-22T02:38:58;6.95;;;3.88;;
46086;SDS011;31824;49.648;8.640;2024-03-22T02:41:59;9.88;;;3.95;;
46086;SDS011;31824;49.648;8.640;2024-03-22T02:45:00;8.10;;;3.53;;
46086;SDS011;31824;49.648;8.640;2024-03-22T02:50:57;9.90;;;4.15;;
46086;SDS011;31824;49.648;8.640;2024-03-22T02:53:58;10.13;;;4.15;;
46086;SDS011;31824;49.648;8.640;2024-03-22T02:56:59;8.90;;;4.13;;
46086;SDS011;31824;49.648;8.640;2024-03-22T03:00:02;9.73;;;3.58;;
46086;SDS011;31824;49.648;8.640;2024-03-22T03:05:57;9.07;;;4.07;;
46086;SDS011;31824;49.648;8.640;2024-03-22T03:08:58;10.23;;;4.10;;
46086;SDS011;31824;49.648;8.640;2024-03-22T03:11:59;9.95;;;4.15;;
46086;SDS011;31824;49.648;8.640;2024-03-22T03:15:00;8.23;;;3.67;;
46086;SDS011;31824;49.648;8.640;2024-03-22T03:20:57;8.48;;;4.07;;
46086;SDS011;31824;49.648;8.640;2024-03-22T03:23:58;11.82;;;4.10;;
46086;SDS011;31824;49.648;8.640;2024-03-22T03:26:59;7.25;;;3.40;;
46086;SDS011;31824;49.648;8.640;2024-03-22T03:30:00;7.47;;;3.45;;
46086;SDS011;31824;49.648;8.640;2024-03-22T03:35:57;15.90;;;6.83;;
46086;SDS011;31824;49.648;8.640;2024-03-22T03:38:58;9.98;;;4.15;;
46086;SDS011;31824;49.648;8.640;2024-03-22T03:41:59;10.35;;;4.43;;
46086;SDS011;31824;49.648;8.640;2024-03-22T03:45:00;11.05;;;5.20;;
46086;SDS011;31824;49.648;8.640;2024-03-22T03:50:58;8.48;;;3.50;;
46086;SDS011;31824;49.648;8.640;2024-03-22T03:54:03;9.45;;;4.05;;
46086;SDS011;31824;49.648;8.640;2024-03-22T03:57:04;9.32;;;4.03;;
46086;SDS011;31824;49.648;8.640;2024-03-22T04:00:06;10.35;;;4.18;;
46086;SDS011;31824;49.648;8.640;2024-03-22T04:06:07;10.55;;;4.05;;
46086;SDS011;31824;49.648;8.640;2024-03-22T04:09:08;9.02;;;3.78;;
46086;SDS011;31824;49.648;8.640;2024-03-22T04:12:09;11.38;;;4.28;;
46086;SDS011;31824;49.648;8.640;2024-03-22T04:15:09;8.73;;;4.00;;
46086;SDS011;31824;49.648;8.640;2024-03-22T04:20:57;11.20;;;4.57;;
46086;SDS011;31824;49.648;8.640;2024-03-22T04:24:02;9.30;;;4.30;;
46086;SDS011;31824;49.648;8.640;2024-03-22T04:27:04;9.52;;;4.70;;
46086;SDS011;31824;49.648;8.640;2024-03-22T04:30:05;9.98;;;4.22;;
46086;SDS011;31824;49.648;8.640;2024-03-22T04:36:06;9.23;;;3.65;;
46086;SDS011;31824;49.648;8.640;2024-03-22T04:42:12;9.75;;;4.07;;
46086;SDS011;31824;49.648;8.640;2024-03-22T04:45:13;10.82;;;3.95;;
46086;SDS011;31824;49.648;8.640;2024-03-22T04:50:57;8.35;;;4.10;;
46086;SDS011;31824;49.648;8.640;2024-03-22T04:53:58;10.20;;;4.00;;
46086;SDS011;31824;49.648;8.640;2024-03-22T04:56:59;10.30;;;4.22;;
46086;SDS011;31824;49.648;8.640;2024-03-22T05:00:00;11.50;;;4.78;;
46086;SDS011;31824;49.648;8.640;2024-03-22T05:06:05;10.25;;;3.83;;
46086;SDS011;31824;49.648;8.640;2024-03-22T05:09:07;12.25;;;4.18;;
46086;SDS011;31824;49.648;8.640;2024-03-22T05:12:10;10.05;;;4.30;;
46086;SDS011;31824;49.648;8.640;2024-03-22T05:15:11;9.27;;;3.42;;
46086;SDS011;31824;49.648;8.640;2024-03-22T05:20:57;9.55;;;4.07;;
46086;SDS011;31824;49.648;8.640;2024-03-22T05:23:58;10.95;;;4.85;;
46086;SDS011;31824;49.648;8.640;2024-03-22T05:26:59;10.60;;;4.15;;
46086;SDS011;31824;49.648;8.640;2024-03-22T05:30:00;10.57;;;4.63;;
46086;SDS011;31824;49.648;8.640;2024-03-22T05:35:57;11.85;;;4.68;;
46086;SDS011;31824;49.648;8.640;2024-03-22T05:38:59;9.32;;;4.38;;
46086;SDS011;31824;49.648;8.640;2024-03-22T05:42:00;10.73;;;4.07;;
46086;SDS011;31824;49.648;8.640;2024-03-22T05:45:01;8.45;;;3.80;;
46086;SDS011;31824;49.648;8.640;2024-03-22T05:51:11;10.45;;;3.78;;
46086;SDS011;31824;49.648;8.640;2024-03-22T05:54:12;8.88;;;3.97;;
46086;SDS011;31824;49.648;8.640;2024-03-22T05:57:13;11.63;;;4.30;;
46086;SDS011;31824;49.648;8.640;2024-03-22T06:00:14;11.93;;;4.10;;
46086;SDS011;31824;49.648;8.640;2024-03-22T06:05:57;13.40;;;4.10;;
46086;SDS011;31824;49.648;8.640;2024-03-22T06:09:00;11.07;;;4.30;;
46086;SDS011;31824;49.648;8.640;2024-03-22T06:12:04;9.15;;;4.00;;
46086;SDS011;31824;49.648;8.640;2024-03-22T06:15:06;10.93;;;3.78;;
46086;SDS011;31824;49.648;8.640;2024-03-22T06:20:57;9.27;;;3.92;;
46086;SDS011;31824;49.648;8.640;2024-03-22T06:23:58;9.05;;;4.63;;
46086;SDS011;31824;49.648;8.640;2024-03-22T06:26:59;10.45;;;4.20;;
46086;SDS011;31824;49.648;8.640;2024-03-22T06:30:00;11.27;;;4.05;;
46086;SDS011;31824;49.648;8.640;2024-03-22T06:35:57;10.75;;;4.25;;
46086;SDS011;31824;49.648;8.640;2024-03-22T06:38:58;9.13;;;4.63;;
46086;SDS011;31824;49.648;8.640;2024-03-22T06:41:59;11.05;;;4.13;;
46086;SDS011;31824;49.648;8.640;2024-03-22T06:45:01;11.13;;;4.65;;
46086;SDS011;31824;49.648;8.640;2024-03-22T06:50:57;7.60;;;3.63;;
46086;SDS011;31824;49.648;8.640;2024-03-22T06:53:58;10.25;;;4.40;;
46086;SDS011;31824;49.648;8.640;2024-03-22T06:56:59;10.25;;;4.65;;
46086;SDS011;31824;49.648;8.640;2024-03-22T07:00:00;10.40;;;4.30;;
46086;SDS011;31824;49.648;8.640;2024-03-22T07:05:57;12.85;;;4.93;;
46086;SDS011;31824;49.648;8.640;2024-03-22T07:08:58;11.20;;;5.13;;
46086;SDS011;31824;49.648;8.640;2024-03-22T07:11:59;11.05;;;4.65;;
46086;SDS011;31824;49.648;8.640;2024-03-22T07:15:00;12.40;;;4.82;;
46086;SDS011;31824;49.648;8.640;2024-03-22T07:20:58;9.60;;;4.63;;
46086;SDS011;31824;49.648;8.640;2024-03-22T07:27:03;8.00;;;4.13;;
46086;SDS011;31824;49.648;8.640;2024-03-22T07:30:04;11.73;;;4.70;;
46086;SDS011;31824;49.648;8.640;2024-03-22T07:36:00;11.68;;;4.28;;
46086;SDS011;31824;49.648;8.640;2024-03-22T07:39:02;12.00;;;5.15;;
46086;SDS011;31824;49.648;8.640;2024-03-22T07:42:06;9.15;;;3.97;;
46086;SDS011;31824;49.648;8.640;2024-03-22T07:45:08;6.40;;;2.72;;
46086;SDS011;31824;49.648;8.640;2024-03-22T07:50:58;7.50;;;4.22;;
46086;SDS011;31824;49.648;8.640;2024-03-22T07:53:59;10.27;;;3.65;;
46086;SDS011;31824;49.648;8.640;2024-03-22T07:57:00;9.45;;;4.07;;
46086;SDS011;31824;49.648;8.640;2024-03-22T08:00:01;11.00;;;3.95;;
46086;SDS011;31824;49.648;8.640;2024-03-22T08:05:57;9.40;;;3.80;;
46086;SDS011;31824;49.648;8.640;2024-03-22T08:08:58;9.30;;;3.97;;
46086;SDS011;31824;49.648;8.640;2024-03-22T08:11:59;8.18;;;3.80;;
46086;SDS011;31824;49.648;8.640;2024-03-22T08:14:59;8.60;;;4.25;;
46086;SDS011;31824;49.648;8.640;2024-03-22T08:20:57;7.90;;;3.67;;
46086;SDS011;31824;49.648;8.640;2024-03-22T08:23:58;7.75;;;3.40;;
46086;SDS011;31824;49.648;8.640;2024-03-22T08:26:59;7.43;;;3.83;;
46086;SDS011;31824;49.648;8.640;2024-03-22T08:30:00;10.43;;;4.60;;
46086;SDS011;31824;49.648;8.640;2024-03-22T08:35:58;14.38;;;4.22;;
46086;SDS011;31824;49.648;8.640;2024-03-22T08:38:58;9.48;;;4.68;;
46086;SDS011;31824;49.648;8.640;2024-03-22T08:41:59;8.68;;;4.20;;
46086;SDS011;31824;49.648;8.640;2024-03-22T08:45:00;7.82;;;4.07;;
46086;SDS011;31824;49.648;8.640;2024-03-22T08:50:57;6.95;;;3.53;;
46086;SDS011;31824;49.648;8.640;2024-03-22T08:53:58;9.35;;;4.13;;
46086;SDS011;31824;49.648;8.640;2024-03-22T08:56:59;10.57;;;4.30;;
46086;SDS011;31824;49.648;8.640;2024-03-22T09:00:00;7.68;;;3.72;;
46086;SDS011;31824;49.648;8.640;2024-03-22T09:05:57;8.82;;;4.10;;
46086;SDS011;31824;49.648;8.640;2024-03-22T09:08:58;9.98;;;4.25;;
46086;SDS011;31824;49.648;8.640;2024-03-22T09:11:59;8.40;;;3.92;;
46086;SDS011;31824;49.648;8.640;2024-03-22T09:15:00;10.43;;;3.95;;
46086;SDS011;31824;49.648;8.640;2024-03-22T09:20:58;6.93;;;3.15;;
46086;SDS011;31824;49.648;8.640;2024-03-22T09:23:59;8.98;;;3.55;;
46086;SDS011;31824;49.648;8.640;2024-03-22T09:27:00;6.28;;;3.05;;
46086;SDS011;31824;49.648;8.640;2024-03-22T09:30:01;7.85;;;3.65;;
46086;SDS011;31824;49.648;8.640;2024-03-22T09:35:57;6.72;;;3.45;;
46086;SDS011;31824;49.648;8.640;2024-03-22T09:38:58;6.55;;;3.40;;
46086;SDS011;31824;49.648;8.640;2024-03-22T09:41:59;8.55;;;3.65;;
46086;SDS011;31824;49.648;8.640;2024-03-22T09:45:03;7.22;;;3.47;;
46086;SDS011;31824;49.648;8.640;2024-03-22T09:50:57;7.10;;;3.33;;
46086;SDS011;31824;49.648;8.640;2024-03-22T09:53:58;8.02;;;3.33;;
46086;SDS011;31824;49.648;8.640;2024-03-22T09:56:59;6.53;;;3.50;;
46086;SDS011;31824;49.648;8.640;2024-03-22T10:00:01;6.40;;;3.35;;
46086;SDS011;31824;49.648;8.640;2024-03-22T10:05:57;5.95;;;2.70;;
46086;SDS011;31824;49.648;8.640;2024-03-22T10:08:58;6.05;;;3.42;;
46086;SDS011;31824;49.648;8.640;2024-03-22T10:12:00;5.25;;;2.88;;
46086;SDS011;31824;49.648;8.640;2024-03-22T10:15:01;7.45;;;3.00;;
46086;SDS011;31824;49.648;8.640;2024-03-22T10:21:00;10.82;;;3.30;;
46086;SDS011;31824;49.648;8.640;2024-03-22T10:24:02;8.43;;;2.42;;
46086;SDS011;31824;49.648;8.640;2024-03-22T10:27:04;6.20;;;3.40;;
46086;SDS011;31824;49.648;8.640;2024-03-22T10:30:06;6.55;;;3.10;;
46086;SDS011;31824;49.648;8.640;2024-03-22T10:35:57;6.53;;;2.90;;
46086;SDS011;31824;49.648;8.640;2024-03-22T10:39:00;6.63;;;2.80;;
46086;SDS011;31824;49.648;8.640;2024-03-22T10:42:04;5.22;;;2.80;;
46086;SDS011;31824;49.648;8.640;2024-03-22T10:45:12;6.20;;;3.45;;
46086;SDS011;31824;49.648;8.640;2024-03-22T10:50:58;5.88;;;3.45;;
46086;SDS011;31824;49.648;8.640;2024-03-22T10:54:02;6.72;;;3.67;;
46086;SDS011;31824;49.648;8.640;2024-03-22T10:57:05;8.00;;;3.05;;
46086;SDS011;31824;49.648;8.640;2024-03-22T11:00:12;5.95;;;3.10;;
46086;SDS011;31824;49.648;8.640;2024-03-22T11:05:57;7.00;;;3.28;;
46086;SDS011;31824;49.648;8.640;2024-03-22T11:08:59;6.93;;;3.30;;
46086;SDS011;31824;49.648;8.640;2024-03-22T11:12:06;5.85;;;3.38;;
46086;SDS011;31824;49.648;8.640;2024-03-22T11:15:09;4.97;;;2.65;;
46086;SDS011;31824;49.648;8.640;2024-03-22T11:20:57;7.70;;;2.45;;
46086;SDS011;31824;49.648;8.640;2024-03-22T11:24:00;7.10;;;2.70;;
46086;SDS011;31824;49.648;8.640;2024-03-22T11:27:01;8.93;;;2.88;;
46086;SDS011;31824;49.648;8.640;2024-03-22T11:30:02;7.97;;;3.00;;
46086;SDS011;31824;49.648;8.640;2024-03-22T11:35:59;4.25;;;2.10;;
46086;SDS011;31824;49.648;8.640;2024-03-22T11:39:00;6.05;;;3.10;;
46086;SDS011;31824;49.648;8.640;2024-03-22T11:42:01;5.40;;;2.60;;
46086;SDS011;31824;49.648;8.640;2024-03-22T11:45:05;8.10;;;2.78;;
46086;SDS011;31824;49.648;8.640;2024-03-22T11:50:57;9.20;;;2.60;;
46086;SDS011;31824;49.648;8.640;2024-03-22T11:54:01;6.32;;;2.53;;
46086;SDS011;31824;49.648;8.640;2024-03-22T11:57:03;5.53;;;2.67;;
46086;SDS011;31824;49.648;8.640;2024-03-22T12:00:05;5.07;;;2.60;;
46086;SDS011;31824;49.648;8.640;2024-03-22T12:05:58;5.65;;;2.22;;
46086;SDS011;31824;49.648;8.640;2024-03-22T12:08:59;4.30;;;2.13;;
46086;SDS011;31824;49.648;8.640;2024-03-22T12:12:00;5.00;;;1.90;;
46086;SDS011;31824;49.648;8.640;2024-03-22T12:15:01;5.05;;;2.25;;
46086;SDS011;31824;49.648;8.640;2024-03-22T12:20:57;7.65;;;2.40;;
46086;SDS011;31824;49.648;8.640;2024-03-22T12:23:58;6.60;;;2.63;;
46086;SDS011;31824;49.648;8.640;2024-03-22T12:26:59;6.55;;;2.80;;
46086;SDS011;31824;49.648;8.640;2024-03-22T12:30:00;3.80;;;2.13;;
46086;SDS011;31824;49.648;8.640;2024-03-22T12:35:57;5.65;;;2.60;;
46086;SDS011;31824;49.648;8.640;2024-03-22T12:38:58;5.68;;;2.38;;
46086;SDS011;31824;49.648;8.640;2024-03-22T12:41:59;7.07;;;2.30;;
46086;SDS011;31824;49.648;8.640;2024-03-22T12:45:00;7.32;;;2.70;;
46086;SDS011;31824;49.648;8.640;2024-03-22T12:50:57;4.38;;;1.88;;
46086;SDS011;31824;49.648;8.640;2024-03-22T12:53:58;6.55;;;2.42;;
46086;SDS011;31824;49.648;8.640;2024-03-22T12:56:59;5.32;;;2.70;;
46086;SDS011;31824;49.648;8.640;2024-03-22T13:00:00;6.07;;;2.47;;
46086;SDS011;31824;49.648;8.640;2024-03-22T13:05:58;5.60;;;2.30;;
46086;SDS011;31824;49.648;8.640;2024-03-22T13:08:59;5.13;;;2.00;;
46086;SDS011;31824;49.648;8.640;2024-03-22T13:12:00;5.20;;;2.22;;
46086;SDS011;31824;49.648;8.640;2024-03-22T13:15:00;4.18;;;1.92;;
46086;SDS011;31824;49.648;8.640;2024-03-22T13:20:57;4.85;;;2.28;;
46086;SDS011;31824;49.648;8.640;2024-03-22T13:23:58;5.57;;;2.10;;
46086;SDS011;31824;49.648;8.640;2024-03-22T13:26:59;3.72;;;1.52;;
46086;SDS011;31824;49.648;8.640;2024-03-22T13:30:00;5.78;;;2.70;;
46086;SDS011;31824;49.648;8.640;2024-03-22T13:35:57;4.10;;;1.53;;
46086;SDS011;31824;49.648;8.640;2024-03-22T13:38:58;5.07;;;2.05;;
46086;SDS011;31824;49.648;8.640;2024-03-22T13:41:59;6.43;;;2.47;;
46086;SDS011;31824;49.648;8.640;2024-03-22T13:45:00;4.97;;;2.38;;
46086;SDS011;31824;49.648;8.640;2024-03-22T13:51:00;6.57;;;2.83;;
46086;SDS011;31824;49.648;8.640;2024-03-22T13:54:01;4.78;;;2.20;;
46086;SDS011;31824;49.648;8.640;2024-03-22T13:57:02;3.92;;;1.98;;
46086;SDS011;31824;49.648;8.640;2024-03-22T14:00:04;7.00;;;2.75;;
46086;SDS011;31824;49.648;8.640;2024-03-22T14:05:57;8.13;;;3.35;;
46086;SDS011;31824;49.648;8.640;2024-03-22T14:08:58;7.13;;;2.92;;
46086;SDS011;31824;49.648;8.640;2024-03-22T14:12:04;10.45;;;2.50;;
46086;SDS011;31824;49.648;8.640;2024-03-22T14:15:05;4.90;;;2.47;;
46086;SDS011;31824;49.648;8.640;2024-03-22T14:20:57;6.90;;;2.88;;
46086;SDS011;31824;49.648;8.640;2024-03-22T14:23:58;6.30;;;2.72;;
46086;SDS011;31824;49.648;8.640;2024-03-22T14:26:59;9.38;;;3.10;;
46086;SDS011;31824;49.648;8.640;2024-03-22T14:30:00;5.75;;;2.97;;
46086;SDS011;31824;49.648;8.640;2024-03-22T14:35:58;8.02;;;3.63;;
46086;SDS011;31824;49.648;8.640;2024-03-22T14:38:59;7.40;;;3.28;;
46086;SDS011;31824;49.648;8.640;2024-03-22T14:42:00;5.95;;;3.03;;
46086;SDS011;31824;49.648;8.640;2024-03-22T14:45:01;8.93;;;3.40;;
46086;SDS011;31824;49.648;8.640;2024-03-22T14:50:58;6.32;;;3.42;;
46086;SDS011;31824;49.648;8.640;2024-03-22T14:53:59;8.85;;;3.72;;
46086;SDS011;31824;49.648;8.640;2024-03-22T14:57:00;8.30;;;3.60;;
46086;SDS011;31824;49.648;8.640;2024-03-22T15:00:01;7.20;;;3.17;;
46086;SDS011;31824;49.648;8.640;2024-03-22T15:05:57;7.22;;;3.08;;
46086;SDS011;31824;49.648;8.640;2024-03-22T15:09:02;13.55;;;3.67;;
46086;SDS011;31824;49.648;8.640;2024-03-22T15:12:09;6.43;;;3.10;;
46086;SDS011;31824;49.648;8.640;2024-03-22T15:15:10;9.30;;;3.15;;
46086;SDS011;31824;49.648;8.640;2024-03-22T15:20:57;7.32;;;3.38;;
46086;SDS011;31824;49.648;8.640;2024-03-22T15:23:59;5.43;;;3.13;;
46086;SDS011;31824;49.648;8.640;2024-03-22T15:26:59;6.45;;;2.95;;
46086;SDS011;31824;49.648;8.640;2024-03-22T15:30:01;16.33;;;6.07;;
46086;SDS011;31824;49.648;8.640;2024-03-22T15:35:58;7.00;;;3.42;;
46086;SDS011;31824;49.648;8.640;2024-03-22T15:38:59;6.60;;;3.08;;
46086;SDS011;31824;49.648;8.640;2024-03-22T15:42:00;4.93;;;2.53;;
46086;SDS011;31824;49.648;8.640;2024-03-22T15:45:02;6.47;;;3.00;;
46086;SDS011;31824;49.648;8.640;2024-03-22T15:50:58;7.65;;;3.60;;
46086;SDS011;31824;49.648;8.640;2024-03-22T15:53:59;7.05;;;2.90;;
46086;SDS011;31824;49.648;8.640;2024-03-22T15:57:00;4.55;;;2.28;;
46086;SDS011;31824;49.648;8.640;2024-03-22T16:00:01;4.50;;;2.40;;
46086;SDS011;31824;49.648;8.640;2024-03-22T16:05:58;6.85;;;2.80;;
46086;SDS011;31824;49.648;8.640;2024-03-22T16:08:59;6.22;;;2.30;;
46086;SDS011;31824;49.648;8.640;2024-03-22T16:12:00;5.55;;;2.05;;
46086;SDS011;31824;49.648;8.640;2024-03-22T16:15:00;4.85;;;2.17;;
46086;SDS011;31824;49.648;8.640;2024-03-22T16:20:57;4.05;;;2.08;;
46086;SDS011;31824;49.648;8.640;2024-03-22T16:23:58;7.63;;;2.33;;
46086;SDS011;31824;49.648;8.640;2024-03-22T16:26:59;6.78;;;2.35;;
46086;SDS011;31824;49.648;8.640;2024-03-22T16:30:00;5.93;;;2.10;;
46086;SDS011;31824;49.648;8.640;2024-03-22T16:35:57;4.60;;;1.90;;
46086;SDS011;31824;49.648;8.640;2024-03-22T16:38:58;6.70;;;2.63;;
46086;SDS011;31824;49.648;8.640;2024-03-22T16:41:59;5.00;;;1.90;;
46086;SDS011;31824;49.648;8.640;2024-03-22T16:45:00;3.38;;;1.52;;
46086;SDS011;31824;49.648;8.640;2024-03-22T16:50:57;3.90;;;1.85;;
46086;SDS011;31824;49.648;8.640;2024-03-22T16:53:58;5.13;;;2.00;;
46086;SDS011;31824;49.648;8.640;2024-03-22T16:56:59;4.28;;;1.92;;
46086;SDS011;31824;49.648;8.640;2024-03-22T17:00:00;15.23;;;5.05;;
46086;SDS011;31824;49.648;8.640;2024-03-22T17:05:58;5.82;;;2.58;;
46086;SDS011;31824;49.648;8.640;2024-03-22T17:08:59;5.43;;;2.30;;
46086;SDS011;31824;49.648;8.640;2024-03-22T17:12:02;4.18;;;1.77;;
46086;SDS011;31824;49.648;8.640;2024-03-22T17:15:05;4.22;;;1.50;;
46086;SDS011;31824;49.648;8.640;2024-03-22T17:21:09;3.40;;;1.90;;
46086;SDS011;31824;49.648;8.640;2024-03-22T17:24:10;6.32;;;2.03;;
46086;SDS011;31824;49.648;8.640;2024-03-22T17:27:11;4.65;;;1.70;;
46086;SDS011;31824;49.648;8.640;2024-03-22T17:30:12;4.10;;;1.95;;
46086;SDS011;31824;49.648;8.640;2024-03-22T17:35:58;5.80;;;1.75;;
46086;SDS011;31824;49.648;8.640;2024-03-22T17:38:59;5.13;;;1.67;;
46086;SDS011;31824;49.648;8.640;2024-03-22T17:42:00;4.78;;;1.95;;
46086;SDS011;31824;49.648;8.640;2024-03-22T17:45:02;5.30;;;2.20;;
46086;SDS011;31824;49.648;8.640;2024-03-22T17:50:57;5.68;;;1.90;;
46086;SDS011;31824;49.648;8.640;2024-03-22T17:53:58;5.00;;;1.92;;
46086;SDS011;31824;49.648;8.640;2024-03-22T17:56:59;4.57;;;2.28;;
46086;SDS011;31824;49.648;8.640;2024-03-22T18:00:00;3.95;;;1.95;;
46086;SDS011;31824;49.648;8.640;2024-03-22T18:05:58;4.60;;;1.70;;
46086;SDS011;31824;49.648;8.640;2024-03-22T18:09:07;7.60;;;3.10;;
46086;SDS011;31824;49.648;8.640;2024-03-22T18:12:16;5.65;;;2.53;;
46086;SDS011;31824;49.648;8.640;2024-03-22T18:15:17;5.97;;;2.55;;
46086;SDS011;31824;49.648;8.640;2024-03-22T18:20:57;6.85;;;2.85;;
46086;SDS011;31824;49.648;8.640;2024-03-22T18:23:58;5.93;;;2.45;;
46086;SDS011;31824;49.648;8.640;2024-03-22T18:26:59;5.00;;;2.35;;
46086;SDS011;31824;49.648;8.640;2024-03-22T18:30:00;5.13;;;2.45;;
46086;SDS011;31824;49.648;8.640;2024-03-22T18:35:57;6.15;;;2.25;;
46086;SDS011;31824;49.648;8.640;2024-03-22T18:38:58;5.88;;;2.20;;
46086;SDS011;31824;49.648;8.640;2024-03-22T18:41:59;6.03;;;2.47;;
46086;SDS011;31824;49.648;8.640;2024-03-22T18:45:00;5.22;;;2.50;;
46086;SDS011;31824;49.648;8.640;2024-03-22T18:50:58;5.93;;;2.13;;
46086;SDS011;31824;49.648;8.640;2024-03-22T18:53:59;7.13;;;2.40;;
46086;SDS011;31824;49.648;8.640;2024-03-22T18:57:00;4.68;;;2.40;;
46086;SDS011;31824;49.648;8.640;2024-03-22T19:00:02;7.53;;;2.05;;
46086;SDS011;31824;49.648;8.640;2024-03-22T19:05:57;6.45;;;2.78;;
46086;SDS011;31824;49.648;8.640;2024-03-22T19:09:01;6.63;;;2.95;;
46086;SDS011;31824;49.648;8.640;2024-03-22T19:12:03;6.90;;;3.00;;
46086;SDS011;31824;49.648;8.640;2024-03-22T19:17:18;6.10;;;2.90;;
46086;SDS011;31824;49.648;8.640;2024-03-22T19:20:57;4.68;;;2.53;;
46086;SDS011;31824;49.648;8.640;2024-03-22T19:23:58;6.30;;;2.90;;
46086;SDS011;31824;49.648;8.640;2024-03-22T19:26:59;6.68;;;3.35;;
46086;SDS011;31824;49.648;8.640;2024-03-22T19:30:00;9.90;;;4.93;;
46086;SDS011;31824;49.648;8.640;2024-03-22T19:35:58;7.88;;;3.03;;
46086;SDS011;31824;49.648;8.640;2024-03-22T19:39:02;6.88;;;2.60;;
46086;SDS011;31824;49.648;8.640;2024-03-22T19:42:09;4.47;;;2.83;;
46086;SDS011;31824;49.648;8.640;2024-03-22T19:45:10;5.82;;;2.95;;
46086;SDS011;31824;49.648;8.640;2024-03-22T19:50:58;6.05;;;2.75;;
46086;SDS011;31824;49.648;8.640;2024-03-22T19:53:58;6.97;;;2.80;;
46086;SDS011;31824;49.648;8.640;2024-03-22T19:56:59;8.18;;;2.80;;
46086;SDS011;31824;49.648;8.640;2024-03-22T20:00:00;5.43;;;2.53;;
46086;SDS011;31824;49.648;8.640;2024-03-22T20:05:57;6.28;;;2.90;;
46086;SDS011;31824;49.648;8.640;2024-03-22T20:08:58;6.40;;;3.03;;
46086;SDS011;31824;49.648;8.640;2024-03-22T20:11:59;5.57;;;3.00;;
46086;SDS011;31824;49.648;8.640;2024-03-22T20:15:00;6.28;;;3.10;;
46086;SDS011;31824;49.648;8.640;2024-03-22T20:20:57;7.53;;;3.00;;
46086;SDS011;31824;49.648;8.640;2024-03-22T20:23:58;6.93;;;2.97;;
46086;SDS011;31824;49.648;8.640;2024-03-22T20:26:59;6.20;;;2.92;;
46086;SDS011;31824;49.648;8.640;2024-03-22T20:30:00;7.60;;;3.20;;
46086;SDS011;31824;49.648;8.640;2024-03-22T20:35:57;7.90;;;3.70;;
46086;SDS011;31824;49.648;8.640;2024-03-22T20:38:58;8.23;;;3.33;;
